createdAt,value
2019-01-30T00:01:23.465Z,20.93
2019-01-30T00:03:53.427Z,20.15
2019-01-30T00:06:23.796Z,21.10
2019-01-30T00:08:53.673Z,20.62
2019-01-30T00:11:23.846Z,21.40
2019-01-30T00:13:53.839Z,22.07
2019-01-30T00:16:24.147Z,19.90
2019-01-30T00:18:54.192Z,20.23
2019-01-30T00:21:24.302Z,20.70
2019-01-30T00:23:54.371Z,20.97
2019-01-30T00:26:24.582Z,22.33
2019-01-30T00:28:54.612Z,21.43
2019-01-30T00:31:24.755Z,22.27
2019-01-30T00:33:54.936Z,22.93
2019-01-30T00:36:25.089Z,23.43
2019-01-30T00:38:55.228Z,22.33
2019-01-30T00:41:25.876Z,23.50
2019-01-30T00:43:57.004Z,23.33
2019-01-30T00:46:26.530Z,23.53
2019-01-30T00:48:56.430Z,23.43
2019-01-30T00:51:25.970Z,23.23
2019-01-30T00:53:55.940Z,23.67
2019-01-30T00:56:26.077Z,23.63
2019-01-30T00:58:59.082Z,24.17
2019-01-30T01:01:28.556Z,24.57
2019-01-30T01:03:58.008Z,21.50
2019-01-30T01:06:27.466Z,24.40
2019-01-30T01:08:56.992Z,23.50
2019-01-30T01:11:26.916Z,24.17
2019-01-30T01:13:56.962Z,24.02
2019-01-30T01:16:27.180Z,23.33
2019-01-30T01:18:57.104Z,23.93
2019-01-30T01:21:27.332Z,24.13
2019-01-30T01:23:57.382Z,24.33
2019-01-30T01:26:27.594Z,22.93
2019-01-30T01:28:57.690Z,25.27
2019-01-30T01:31:27.786Z,25.00
2019-01-30T01:33:57.780Z,24.53
2019-01-30T01:36:27.940Z,22.00
2019-01-30T01:38:58.132Z,24.13
2019-01-30T01:41:28.196Z,25.23
2019-01-30T01:43:58.314Z,24.60
2019-01-30T01:46:28.487Z,24.70
2019-01-30T01:48:58.567Z,25.20
2019-01-30T01:51:28.774Z,24.50
2019-01-30T01:53:58.832Z,25.20
2019-01-30T01:56:28.960Z,24.53
2019-01-30T01:58:59.088Z,26.70
2019-01-30T02:01:29.230Z,25.68
2019-01-30T02:03:59.331Z,24.50
2019-01-30T02:06:29.462Z,25.20
2019-01-30T02:08:59.508Z,24.33
2019-01-30T02:11:29.738Z,24.17
2019-01-30T02:13:59.828Z,25.70
2019-01-30T02:16:29.976Z,24.80
2019-01-30T02:19:00.080Z,25.07
2019-01-30T02:21:30.182Z,25.37
2019-01-30T02:24:00.552Z,24.60
2019-01-30T02:26:30.529Z,25.70
2019-01-30T02:29:00.805Z,24.80
2019-01-30T02:31:30.854Z,24.67
2019-01-30T02:34:01.358Z,25.80
2019-01-30T02:36:31.302Z,25.70
2019-01-30T02:39:01.169Z,24.50
2019-01-30T02:41:31.321Z,24.07
2019-01-30T02:44:02.221Z,24.87
2019-01-30T02:46:31.684Z,23.93
2019-01-30T02:49:01.662Z,25.10
2019-01-30T02:51:31.850Z,24.50
2019-01-30T02:54:01.940Z,25.53
2019-01-30T02:56:32.084Z,24.70
2019-01-30T02:59:02.209Z,25.57
2019-01-30T03:01:33.986Z,24.07
2019-01-30T03:04:03.417Z,23.17
2019-01-30T03:06:32.943Z,23.50
2019-01-30T03:09:02.734Z,22.95
2019-01-30T03:11:33.259Z,20.90
2019-01-30T03:14:03.107Z,23.43
2019-01-30T03:16:33.216Z,22.80
2019-01-30T03:19:03.370Z,24.50
2019-01-30T03:21:33.466Z,22.00
2019-01-30T03:24:03.580Z,22.93
2019-01-30T03:26:33.609Z,20.93
2019-01-30T03:29:03.841Z,20.87
2019-01-30T03:31:33.868Z,21.23
2019-01-30T03:34:04.085Z,21.13
2019-01-30T03:36:34.208Z,22.37
2019-01-30T03:39:06.793Z,20.23
2019-01-30T03:41:36.227Z,20.77
2019-01-30T03:44:05.818Z,19.90
2019-01-30T03:46:35.262Z,19.77
2019-01-30T03:49:04.868Z,20.60
2019-01-30T03:51:34.990Z,18.67
2019-01-30T03:54:05.406Z,18.87
2019-01-30T03:56:35.140Z,19.10
2019-01-30T03:59:05.508Z,18.60
2019-01-30T04:01:35.429Z,19.45
2019-01-30T04:04:05.487Z,18.17
2019-01-30T04:06:35.607Z,18.50
2019-01-30T04:09:07.079Z,18.37
2019-01-30T04:11:36.535Z,19.17
2019-01-30T04:14:06.145Z,19.77
2019-01-30T04:16:36.103Z,19.40
2019-01-30T04:19:06.759Z,18.10
2019-01-30T04:21:37.276Z,18.50
2019-01-30T04:24:06.788Z,17.77
2019-01-30T04:26:36.614Z,17.12
2019-01-30T04:29:06.856Z,18.70
2019-01-30T04:31:38.333Z,18.10
2019-01-30T04:34:08.347Z,18.00
2019-01-30T04:36:37.781Z,18.23
2019-01-30T04:39:09.739Z,18.70
2019-01-30T04:41:39.305Z,17.07
2019-01-30T04:44:08.751Z,17.70
2019-01-30T04:46:38.121Z,19.30
2019-01-30T04:49:07.807Z,17.35
2019-01-30T04:51:37.809Z,16.87
2019-01-30T04:54:07.966Z,16.50
2019-01-30T04:56:38.093Z,17.00
2019-01-30T04:59:08.613Z,16.20
2019-01-30T05:01:49.245Z,16.47
2019-01-30T05:04:09.347Z,16.60
2019-01-30T05:06:38.862Z,17.40
2019-01-30T05:09:09.394Z,18.77
2019-01-30T05:11:38.825Z,18.17
2019-01-30T05:14:09.203Z,17.90
2019-01-30T05:16:39.573Z,18.82
2019-01-30T05:19:09.536Z,18.60
2019-01-30T05:21:39.572Z,18.33
2019-01-30T05:24:09.790Z,18.60
2019-01-30T05:26:39.948Z,18.10
2019-01-30T05:29:09.986Z,18.00
2019-01-30T05:31:40.103Z,17.50
2019-01-30T05:34:10.323Z,17.30
2019-01-30T05:36:40.371Z,19.00
2019-01-30T05:39:10.593Z,18.50
2019-01-30T05:41:40.874Z,19.57
2019-01-30T05:44:11.152Z,19.27
2019-01-30T05:46:40.995Z,19.00
2019-01-30T05:49:11.378Z,19.97
2019-01-30T05:51:41.486Z,18.57
2019-01-30T05:54:11.888Z,19.80
2019-01-30T05:56:42.188Z,18.90
2019-01-30T05:59:12.337Z,18.65
2019-01-30T06:01:42.391Z,17.82
2019-01-30T06:04:12.235Z,18.73
2019-01-30T06:06:42.395Z,19.42
2019-01-30T06:09:12.500Z,17.75
2019-01-30T06:11:42.583Z,18.40
2019-01-30T06:14:12.751Z,17.32
2019-01-30T06:16:43.273Z,19.37
2019-01-30T06:19:12.907Z,18.13
2019-01-30T06:21:43.146Z,19.53
2019-01-30T06:24:13.163Z,18.33
2019-01-30T06:26:43.232Z,17.27
2019-01-30T06:29:13.303Z,18.27
2019-01-30T06:31:43.409Z,19.27
2019-01-30T06:34:13.582Z,19.93
2019-01-30T06:36:43.755Z,18.90
2019-01-30T06:39:13.836Z,19.17
2019-01-30T06:41:43.951Z,18.87
2019-01-30T06:44:14.099Z,19.13
2019-01-30T06:46:44.203Z,19.13
2019-01-30T06:49:14.386Z,19.35
2019-01-30T06:51:44.515Z,19.60
2019-01-30T06:54:14.511Z,19.53
2019-01-30T06:56:44.687Z,18.70
2019-01-30T06:59:14.772Z,19.07
2019-01-30T07:01:44.944Z,19.07
2019-01-30T07:04:15.012Z,16.63
2019-01-30T07:06:45.134Z,19.03
2019-01-30T07:09:15.278Z,19.13
2019-01-30T07:11:48.068Z,17.67
2019-01-30T07:14:17.520Z,18.90
2019-01-30T07:16:49.783Z,17.47
2019-01-30T07:19:19.242Z,17.70
2019-01-30T07:21:48.772Z,18.10
2019-01-30T07:24:18.200Z,17.53
2019-01-30T07:26:47.641Z,17.93
2019-01-30T07:29:17.204Z,17.47
2019-01-30T07:31:46.650Z,18.10
2019-01-30T07:34:16.434Z,18.77
2019-01-30T07:36:46.610Z,18.15
2019-01-30T07:39:17.108Z,17.47
2019-01-30T07:41:46.868Z,17.17
2019-01-30T07:44:16.966Z,17.17
2019-01-30T07:46:48.728Z,17.95
2019-01-30T07:49:18.098Z,16.70
2019-01-30T07:51:47.554Z,17.17
2019-01-30T07:54:17.392Z,17.87
2019-01-30T07:56:47.515Z,16.23
2019-01-30T07:59:17.670Z,16.93
2019-01-30T08:01:47.794Z,18.77
2019-01-30T08:04:17.884Z,16.12
2019-01-30T08:06:48.092Z,17.00
2019-01-30T08:09:18.174Z,16.17
2019-01-30T08:11:48.325Z,15.90
2019-01-30T08:14:18.417Z,16.07
2019-01-30T08:16:48.628Z,15.98
2019-01-30T08:19:18.749Z,16.82
2019-01-30T08:21:48.664Z,15.90
2019-01-30T08:24:18.965Z,15.53
2019-01-30T08:26:48.994Z,15.83
2019-01-30T08:29:19.144Z,15.95
2019-01-30T08:31:49.475Z,15.45
2019-01-30T08:34:19.315Z,15.47
2019-01-30T08:36:49.462Z,15.37
2019-01-30T08:39:19.575Z,15.00
2019-01-30T08:41:49.640Z,15.13
2019-01-30T08:44:19.850Z,14.53
2019-01-30T08:46:49.905Z,14.53
2019-01-30T08:49:20.085Z,14.93
2019-01-30T08:51:50.176Z,14.63
2019-01-30T08:54:20.292Z,15.23
2019-01-30T08:56:53.002Z,13.65
2019-01-30T08:59:21.466Z,14.37
2019-01-30T09:01:50.840Z,14.30
2019-01-30T09:04:20.786Z,14.25
2019-01-30T09:06:51.018Z,14.20
2019-01-30T09:09:20.956Z,13.83
2019-01-30T09:11:51.163Z,14.40
2019-01-30T09:14:21.347Z,15.07
2019-01-30T09:16:51.518Z,13.63
2019-01-30T09:19:21.451Z,13.90
2019-01-30T09:21:51.699Z,14.13
2019-01-30T09:24:21.803Z,14.37
2019-01-30T09:26:51.878Z,13.77
2019-01-30T09:29:22.011Z,14.97
2019-01-30T09:31:52.502Z,13.90
2019-01-30T09:34:22.301Z,13.80
2019-01-30T09:36:52.362Z,13.43
2019-01-30T09:39:22.609Z,13.63
2019-01-30T09:41:52.718Z,13.43
2019-01-30T09:44:22.763Z,13.17
2019-01-30T09:46:52.851Z,13.03
2019-01-30T09:49:22.925Z,13.00
2019-01-30T09:51:53.148Z,13.70
2019-01-30T09:54:23.209Z,13.50
2019-01-30T09:56:53.322Z,13.17
2019-01-30T09:59:23.459Z,13.58
2019-01-30T10:01:53.585Z,14.03
2019-01-30T10:04:23.712Z,13.72
2019-01-30T10:06:53.831Z,12.67
2019-01-30T10:09:30.019Z,13.87
2019-01-30T10:11:59.488Z,13.23
2019-01-30T10:14:28.959Z,13.60
2019-01-30T10:16:58.427Z,13.00
2019-01-30T10:19:27.863Z,13.40
2019-01-30T10:21:57.303Z,13.33
2019-01-30T10:24:29.029Z,12.17
2019-01-30T10:26:58.809Z,13.27
2019-01-30T10:29:28.303Z,12.67
2019-01-30T10:31:57.772Z,12.47
2019-01-30T10:34:27.225Z,12.90
2019-01-30T10:36:56.708Z,12.00
2019-01-30T10:39:26.105Z,11.70
2019-01-30T10:41:55.548Z,12.17
2019-01-30T10:44:25.587Z,12.20
2019-01-30T10:46:55.825Z,11.27
2019-01-30T10:49:25.866Z,11.18
2019-01-30T10:51:55.993Z,10.80
2019-01-30T10:54:26.369Z,11.67
2019-01-30T10:56:56.220Z,10.93
2019-01-30T10:59:26.741Z,11.00
2019-01-30T11:01:56.371Z,10.77
2019-01-30T11:04:26.630Z,10.40
2019-01-30T11:06:56.669Z,10.37
2019-01-30T11:09:26.793Z,10.10
2019-01-30T11:11:56.985Z,10.37
2019-01-30T11:14:27.032Z,10.20
2019-01-30T11:16:57.175Z,10.30
2019-01-30T11:19:27.371Z,10.57
2019-01-30T11:21:57.409Z,9.30
2019-01-30T11:24:27.579Z,9.73
2019-01-30T11:26:57.769Z,9.45
2019-01-30T11:29:27.922Z,9.90
2019-01-30T11:31:58.038Z,9.70
2019-01-30T11:34:28.085Z,9.33
2019-01-30T11:37:00.130Z,7.70
2019-01-30T11:39:29.338Z,9.07
2019-01-30T11:41:58.757Z,9.03
2019-01-30T11:44:29.294Z,9.43
2019-01-30T11:46:58.735Z,9.50
2019-01-30T11:49:28.839Z,9.00
2019-01-30T11:51:58.874Z,9.13
2019-01-30T11:54:38.515Z,8.57
2019-01-30T11:57:00.144Z,9.33
2019-01-30T11:59:29.667Z,8.47
2019-01-30T12:01:59.446Z,9.13
2019-01-30T12:04:29.546Z,8.73
2019-01-30T12:06:59.644Z,8.63
2019-01-30T12:09:29.779Z,7.57
2019-01-30T12:11:59.899Z,8.13
2019-01-30T12:14:30.049Z,7.00
2019-01-30T12:17:00.157Z,7.33
2019-01-30T12:19:30.209Z,7.20
2019-01-30T12:22:00.325Z,7.83
2019-01-30T12:24:30.535Z,7.07
2019-01-30T12:27:00.637Z,7.37
2019-01-30T12:29:30.738Z,6.37
2019-01-30T12:32:00.825Z,6.78
2019-01-30T12:34:31.343Z,6.97
2019-01-30T12:37:01.149Z,6.42
2019-01-30T12:39:31.209Z,6.37
2019-01-30T12:42:01.358Z,6.92
2019-01-30T12:44:33.518Z,6.00
2019-01-30T12:47:02.447Z,6.20
2019-01-30T12:49:31.904Z,6.77
2019-01-30T12:52:01.855Z,6.00
2019-01-30T12:54:32.095Z,6.62
2019-01-30T12:57:02.136Z,5.67
2019-01-30T12:59:32.360Z,5.42
2019-01-30T13:02:02.455Z,5.95
2019-01-30T13:04:38.794Z,5.10
2019-01-30T13:07:03.738Z,5.70
2019-01-30T13:09:33.198Z,6.03
2019-01-30T13:12:02.974Z,5.53
2019-01-30T13:14:33.074Z,6.60
2019-01-30T13:17:03.048Z,5.10
2019-01-30T13:19:34.046Z,4.90
2019-01-30T13:22:03.538Z,4.67
2019-01-30T13:24:33.566Z,5.42
2019-01-30T13:27:04.409Z,5.40
2019-01-30T13:29:33.914Z,5.30
2019-01-30T13:32:04.305Z,5.97
2019-01-30T13:34:34.076Z,4.20
2019-01-30T13:37:04.281Z,5.10
2019-01-30T13:39:34.316Z,5.00
2019-01-30T13:42:04.620Z,5.22
2019-01-30T13:44:34.542Z,4.00
2019-01-30T13:47:05.171Z,4.50
2019-01-30T13:49:34.810Z,4.27
2019-01-30T13:52:05.749Z,4.60
2019-01-30T13:54:35.264Z,4.53
2019-01-30T13:57:05.236Z,3.90
2019-01-30T13:59:35.177Z,4.57
2019-01-30T14:02:05.642Z,3.72
2019-01-30T14:04:35.528Z,4.12
2019-01-30T14:07:05.749Z,3.98
2019-01-30T14:09:35.837Z,3.60
2019-01-30T14:12:05.881Z,4.20
2019-01-30T14:14:35.934Z,4.00
2019-01-30T14:17:06.080Z,4.53
2019-01-30T14:19:36.198Z,4.13
2019-01-30T14:22:06.420Z,4.83
2019-01-30T14:24:36.475Z,3.83
2019-01-30T14:27:06.677Z,4.03
2019-01-30T14:29:36.620Z,4.17
2019-01-30T14:32:06.846Z,3.77
2019-01-30T14:34:36.868Z,3.47
2019-01-30T14:37:07.061Z,3.87
2019-01-30T14:39:37.570Z,3.87
2019-01-30T14:42:07.513Z,4.10
2019-01-30T14:44:37.412Z,4.17
2019-01-30T14:47:10.359Z,3.70
2019-01-30T14:49:38.608Z,4.60
2019-01-30T14:52:08.026Z,4.77
2019-01-30T14:54:37.931Z,4.67
2019-01-30T14:57:08.309Z,4.57
2019-01-30T14:59:38.267Z,4.53
2019-01-30T15:02:08.433Z,4.13
2019-01-30T15:04:38.470Z,4.53
2019-01-30T15:07:08.619Z,4.17
2019-01-30T15:09:38.654Z,4.27
2019-01-30T15:12:09.024Z,4.97
2019-01-30T15:14:39.380Z,4.70
2019-01-30T15:17:09.445Z,4.67
2019-01-30T15:19:39.640Z,4.17
2019-01-30T15:22:09.668Z,4.77
2019-01-30T15:24:39.779Z,4.43
2019-01-30T15:27:09.942Z,4.10
2019-01-30T15:29:40.181Z,4.53
2019-01-30T15:32:10.705Z,4.20
2019-01-30T15:34:40.301Z,4.33
2019-01-30T15:37:10.511Z,4.27
2019-01-30T15:39:40.563Z,4.28
2019-01-30T15:42:10.618Z,4.10
2019-01-30T15:44:40.967Z,5.03
2019-01-30T15:47:11.049Z,4.13
2019-01-30T15:49:40.983Z,4.47
2019-01-30T15:52:11.125Z,4.17
2019-01-30T15:54:41.323Z,4.87
2019-01-30T15:57:11.470Z,4.33
2019-01-30T15:59:41.502Z,4.30
2019-01-30T16:02:11.793Z,4.57
2019-01-30T16:04:41.823Z,3.93
2019-01-30T16:07:11.921Z,5.20
2019-01-30T16:09:42.095Z,5.70
2019-01-30T16:12:12.245Z,4.93
2019-01-30T16:14:42.348Z,5.43
2019-01-30T16:17:12.500Z,5.57
2019-01-30T16:19:43.316Z,5.67
2019-01-30T16:22:12.859Z,5.43
2019-01-30T16:24:42.291Z,6.00
2019-01-30T16:27:11.743Z,5.80
2019-01-30T16:29:41.261Z,5.47
2019-01-30T16:32:10.762Z,5.70
2019-01-30T16:34:40.288Z,6.27
2019-01-30T16:37:09.795Z,6.80
2019-01-30T16:39:39.307Z,6.17
2019-01-30T16:42:10.461Z,6.47
2019-01-30T16:44:39.899Z,5.80
2019-01-30T16:47:09.453Z,6.27
2019-01-30T16:49:38.966Z,6.33
2019-01-30T16:52:08.651Z,5.73
2019-01-30T16:54:40.179Z,7.03
2019-01-30T16:57:09.691Z,6.43
2019-01-30T16:59:39.281Z,6.33
2019-01-30T17:02:09.002Z,7.40
2019-01-30T17:04:38.532Z,6.10
2019-01-30T17:07:07.955Z,6.37
2019-01-30T17:09:37.469Z,6.83
2019-01-30T17:12:07.067Z,7.47
2019-01-30T17:14:36.506Z,6.23
2019-01-30T17:17:06.026Z,7.00
2019-01-30T17:19:35.455Z,6.57
2019-01-30T17:22:06.309Z,6.80
2019-01-30T17:24:35.812Z,6.83
2019-01-30T17:27:05.341Z,7.00
2019-01-30T17:29:34.854Z,7.43
2019-01-30T17:32:05.019Z,6.60
2019-01-30T17:34:36.149Z,6.17
2019-01-30T17:37:05.545Z,6.93
2019-01-30T17:39:35.065Z,7.57
2019-01-30T17:42:04.601Z,6.67
2019-01-30T17:44:34.294Z,7.30
2019-01-30T17:47:04.036Z,7.33
2019-01-30T17:49:33.486Z,7.47
2019-01-30T17:52:03.016Z,7.93
2019-01-30T17:54:33.555Z,7.60
2019-01-30T17:57:03.127Z,8.73
2019-01-30T17:59:32.659Z,8.00
2019-01-30T18:02:05.097Z,8.33
2019-01-30T18:04:34.675Z,8.27
2019-01-30T18:07:04.265Z,8.70
2019-01-30T18:09:33.817Z,8.63
2019-01-30T18:12:03.306Z,8.63
2019-01-30T18:14:32.872Z,9.30
2019-01-30T18:17:02.383Z,9.50
2019-01-30T18:19:31.852Z,9.40
2019-01-30T18:22:01.368Z,10.13
2019-01-30T18:24:32.340Z,9.97
2019-01-30T18:27:01.786Z,10.90
2019-01-30T18:29:31.342Z,10.87
2019-01-30T18:32:01.380Z,11.33
2019-01-30T18:34:30.865Z,12.73
2019-01-30T18:37:00.301Z,11.80
2019-01-30T18:39:29.789Z,11.87
2019-01-30T18:41:59.222Z,12.50
2019-01-30T18:44:28.756Z,12.47
2019-01-30T18:46:58.202Z,14.10
2019-01-30T18:49:32.002Z,14.40
2019-01-30T18:52:01.484Z,13.93
2019-01-30T18:54:30.940Z,13.07
2019-01-30T18:57:03.278Z,12.97
2019-01-30T18:59:32.809Z,14.27
2019-01-30T19:02:02.323Z,13.93
2019-01-30T19:04:31.854Z,13.87
2019-01-30T19:07:01.360Z,15.33
2019-01-30T19:09:30.841Z,14.90
2019-01-30T19:12:02.148Z,14.90
2019-01-30T19:14:31.602Z,15.90
2019-01-30T19:17:01.239Z,16.43
2019-01-30T19:19:30.688Z,17.17
2019-01-30T19:22:00.119Z,16.53
2019-01-30T19:24:33.424Z,17.53
2019-01-30T19:27:04.001Z,18.20
2019-01-30T19:29:33.362Z,17.57
2019-01-30T19:32:05.304Z,17.93
2019-01-30T19:34:35.708Z,18.40
2019-01-30T19:37:06.568Z,17.77
2019-01-30T19:39:36.043Z,16.77
2019-01-30T19:42:05.634Z,18.17
2019-01-30T19:44:35.116Z,18.40
2019-01-30T19:47:04.819Z,17.93
2019-01-30T19:49:34.759Z,18.83
2019-01-30T19:52:04.345Z,18.10
2019-01-30T19:54:38.153Z,18.30
2019-01-30T19:57:07.678Z,18.83
2019-01-30T19:59:37.313Z,19.93
2019-01-30T20:02:08.240Z,19.50
2019-01-30T20:04:41.033Z,18.63
2019-01-30T20:07:14.788Z,19.63
2019-01-30T20:09:44.972Z,18.80
2019-01-30T20:12:14.522Z,19.70
2019-01-30T20:14:45.728Z,20.40
2019-01-30T20:17:15.251Z,20.47
2019-01-30T20:19:45.691Z,20.27
2019-01-30T20:22:17.151Z,21.37
2019-01-30T20:24:48.285Z,20.80
2019-01-30T20:27:20.464Z,19.23
2019-01-30T20:29:51.276Z,20.10
2019-01-30T20:32:23.350Z,21.33
2019-01-30T20:34:54.864Z,20.63
2019-01-30T20:37:26.284Z,22.73
2019-01-30T20:39:57.336Z,22.00
2019-01-30T20:42:26.916Z,21.23
2019-01-30T20:44:56.468Z,22.23
2019-01-30T20:47:26.004Z,22.80
2019-01-30T20:49:57.075Z,22.30
2019-01-30T20:52:27.850Z,23.47
2019-01-30T20:54:59.903Z,23.27
2019-01-30T20:57:28.524Z,22.10
2019-01-30T20:59:59.550Z,21.57
2019-01-30T21:02:30.490Z,22.33
2019-01-30T21:05:02.147Z,23.03
2019-01-30T21:07:37.281Z,23.00
2019-01-30T21:10:07.504Z,24.13
2019-01-30T21:12:38.148Z,23.67
2019-01-30T21:15:10.852Z,22.47
2019-01-30T21:17:40.400Z,22.83
2019-01-30T21:20:16.473Z,23.50
2019-01-30T21:22:45.932Z,23.80
2019-01-30T21:25:18.092Z,25.37
2019-01-30T21:27:48.104Z,23.03
2019-01-30T21:30:23.498Z,22.77
2019-01-30T21:32:53.113Z,25.33
2019-01-30T21:35:22.625Z,25.37
2019-01-30T21:37:52.171Z,24.07
2019-01-30T21:40:22.392Z,25.30
2019-01-30T21:42:51.999Z,25.63
2019-01-30T21:45:24.426Z,24.00
2019-01-30T21:47:54.011Z,25.77
2019-01-30T21:50:25.728Z,25.67
2019-01-30T21:52:59.189Z,26.67
2019-01-30T21:55:28.718Z,27.97
2019-01-30T21:57:58.177Z,26.87
2019-01-30T22:00:29.570Z,26.70
2019-01-30T22:02:59.145Z,26.10
2019-01-30T22:05:28.848Z,26.53
2019-01-30T22:08:01.130Z,25.73
2019-01-30T22:10:30.330Z,27.63
2019-01-30T22:12:59.844Z,27.73
2019-01-30T22:15:29.388Z,28.57
2019-01-30T22:17:58.987Z,28.27
2019-01-30T22:20:28.556Z,27.03
2019-01-30T22:22:58.167Z,27.97
2019-01-30T22:25:27.761Z,25.33
2019-01-30T22:27:57.237Z,27.30
2019-01-30T22:30:31.811Z,25.67
2019-01-30T22:33:01.411Z,26.87
2019-01-30T22:35:31.019Z,26.03
2019-01-30T22:38:11.564Z,25.43
2019-01-30T22:40:31.669Z,25.17
2019-01-30T22:43:01.209Z,23.83
2019-01-30T22:45:30.723Z,23.70
2019-01-30T22:48:00.153Z,25.73
2019-01-30T22:50:29.668Z,23.97
2019-01-30T22:52:59.119Z,24.63
2019-01-30T22:55:47.915Z,23.37
2019-01-30T22:58:17.356Z,24.40
2019-01-30T23:01:09.048Z,23.67
2019-01-30T23:03:56.451Z,23.67
2019-01-30T23:06:40.906Z,23.50
2019-01-30T23:09:32.701Z,23.87
2019-01-30T23:12:17.317Z,22.10
2019-01-30T23:14:54.165Z,23.23
2019-01-30T23:17:41.989Z,21.37
2019-01-30T23:20:14.867Z,23.57
2019-01-30T23:22:58.743Z,21.70
2019-01-30T23:25:39.830Z,22.60
2019-01-30T23:28:15.229Z,21.87
2019-01-30T23:31:07.229Z,22.07
2019-01-30T23:33:59.133Z,22.57
2019-01-30T23:36:46.528Z,22.67
2019-01-30T23:39:21.939Z,22.07
2019-01-30T23:42:03.623Z,22.13
2019-01-30T23:44:38.857Z,22.43
2019-01-30T23:47:12.255Z,21.03
2019-01-30T23:49:47.283Z,22.20
2019-01-30T23:52:43.541Z,22.50
2019-01-30T23:55:21.881Z,22.10
2019-01-30T23:57:57.279Z,20.47
